createdAt,value
2023-04-27T00:00:11.290Z,100925.41
2023-04-27T00:02:41.804Z,100924.56
2023-04-27T00:05:12.001Z,100919.31
2023-04-27T00:07:41.251Z,100921.94
2023-04-27T00:10:11.125Z,100912.34
2023-04-27T00:12:45.172Z,100914.09
2023-04-27T00:15:16.266Z,100914.13
2023-04-27T00:17:46.562Z,100909.78
2023-04-27T00:20:15.334Z,100905.41
2023-04-27T00:22:44.093Z,100904.53
2023-04-27T00:25:12.996Z,100907.19
2023-04-27T00:27:41.836Z,100904.56
2023-04-27T00:30:12.097Z,100903.69
2023-04-27T00:32:42.421Z,100901.91
2023-04-27T00:35:13.199Z,100906.31
2023-04-27T00:37:44.206Z,100901.09
2023-04-27T00:40:13.490Z,100908.97
2023-04-27T00:42:42.289Z,100908.06
2023-04-27T00:45:13.450Z,100911.56
2023-04-27T00:47:42.767Z,100911.59
2023-04-27T00:50:13.704Z,100916.84
2023-04-27T00:52:42.984Z,100919.47
2023-04-27T00:55:11.768Z,100912.50
2023-04-27T00:57:42.280Z,100917.78
2023-04-27T01:00:13.823Z,100916.03
2023-04-27T01:02:43.697Z,100915.16
2023-04-27T01:05:14.232Z,100921.31
2023-04-27T01:07:43.789Z,100925.66
2023-04-27T01:10:12.742Z,100923.06
2023-04-27T01:12:41.647Z,100924.81
2023-04-27T01:15:11.781Z,100918.69
2023-04-27T01:17:41.800Z,100926.59
2023-04-27T01:20:11.313Z,100928.34
2023-04-27T01:22:41.927Z,100923.97
2023-04-27T01:25:12.676Z,100922.25
2023-04-27T01:27:41.453Z,100924.00
2023-04-27T01:30:10.592Z,100931.88
2023-04-27T01:32:39.622Z,100928.41
2023-04-27T01:35:09.013Z,100932.78
2023-04-27T01:37:38.216Z,100865.22
2023-04-27T01:40:08.868Z,100909.06
2023-04-27T01:42:39.057Z,100933.72
2023-04-27T01:45:12.157Z,100938.06
2023-04-27T01:47:41.182Z,100945.06
2023-04-27T01:50:11.556Z,100944.22
2023-04-27T01:52:41.367Z,100951.22
2023-04-27T01:55:11.296Z,100947.72
2023-04-27T01:57:41.695Z,100949.47
2023-04-27T02:00:11.775Z,100950.34
2023-04-27T02:02:57.430Z,100944.22
2023-04-27T02:05:26.429Z,100890.66
2023-04-27T02:07:57.100Z,100953.84
2023-04-27T02:10:26.137Z,100950.34
2023-04-27T02:12:58.852Z,100960.81
2023-04-27T02:15:27.969Z,100954.72
2023-04-27T02:17:57.374Z,100946.84
2023-04-27T02:20:26.773Z,100955.63
2023-04-27T02:22:55.684Z,100947.72
2023-04-27T02:25:28.265Z,100963.47
2023-04-27T02:27:58.838Z,100960.84
2023-04-27T02:30:28.370Z,100952.09
2023-04-27T02:33:00.756Z,100954.72
2023-04-27T02:35:29.639Z,100958.19
2023-04-27T02:38:01.694Z,100962.59
2023-04-27T02:40:30.455Z,100954.69
2023-04-27T02:43:00.879Z,100959.94
2023-04-27T02:45:30.984Z,100958.22
2023-04-27T02:48:00.447Z,100963.44
2023-04-27T02:50:29.324Z,100959.06
2023-04-27T02:52:58.072Z,100963.44
2023-04-27T02:55:31.102Z,100958.19
2023-04-27T02:58:01.263Z,100957.31
2023-04-27T03:00:30.323Z,100965.19
2023-04-27T03:03:00.563Z,100962.56
2023-04-27T03:05:31.709Z,100965.22
2023-04-27T03:08:00.584Z,100968.75
2023-04-27T03:10:36.992Z,100963.47
2023-04-27T03:13:07.274Z,100969.63
2023-04-27T03:15:36.870Z,100969.59
2023-04-27T03:18:06.306Z,100973.13
2023-04-27T03:20:36.103Z,100970.50
2023-04-27T03:23:05.392Z,100977.47
2023-04-27T03:25:35.413Z,100988.84
2023-04-27T03:28:04.634Z,100982.75
2023-04-27T03:30:35.979Z,100982.72
2023-04-27T03:33:04.767Z,100988.00
2023-04-27T03:35:34.818Z,100993.25
2023-04-27T03:38:03.672Z,100997.63
2023-04-27T03:40:34.001Z,101002.91
2023-04-27T03:43:04.719Z,101001.19
2023-04-27T03:45:34.854Z,101001.19
2023-04-27T03:48:03.859Z,100997.66
2023-04-27T03:50:33.008Z,101004.69
2023-04-27T03:53:03.301Z,101002.06
2023-04-27T03:55:32.205Z,101002.97
2023-04-27T03:58:01.099Z,101007.34
2023-04-27T04:00:59.999Z,101020.47
2023-04-27T04:03:51.861Z,101016.97
2023-04-27T04:06:20.818Z,101014.38
2023-04-27T04:08:49.762Z,101021.38
2023-04-27T04:11:19.068Z,101024.94
2023-04-27T04:13:48.549Z,101026.75
2023-04-27T04:16:19.543Z,101032.03
2023-04-27T04:18:48.740Z,101032.03
2023-04-27T04:21:17.978Z,101036.41
2023-04-27T04:23:46.764Z,101039.03
2023-04-27T04:26:15.721Z,101037.28
2023-04-27T04:28:45.834Z,101044.28
2023-04-27T04:31:17.517Z,101045.19
2023-04-27T04:33:48.123Z,101047.84
2023-04-27T04:36:18.545Z,101049.56
2023-04-27T04:38:47.373Z,101053.06
2023-04-27T04:41:19.767Z,101048.72
2023-04-27T04:43:49.495Z,101051.34
2023-04-27T04:46:20.107Z,101061.03
2023-04-27T04:48:52.182Z,101060.16
2023-04-27T04:51:22.793Z,101060.19
2023-04-27T04:53:52.365Z,101064.56
2023-04-27T04:56:21.285Z,101068.13
2023-04-27T04:58:50.227Z,101072.53
2023-04-27T05:01:19.477Z,101070.78
2023-04-27T05:03:49.777Z,101073.44
2023-04-27T05:06:18.727Z,101071.72
2023-04-27T05:08:47.442Z,101081.41
2023-04-27T05:11:16.135Z,101077.06
2023-04-27T05:13:45.333Z,101079.69
2023-04-27T05:16:14.265Z,101075.34
2023-04-27T05:18:43.660Z,101084.13
2023-04-27T05:21:20.622Z,101078.91
2023-04-27T05:23:49.530Z,101085.03
2023-04-27T05:26:19.621Z,101082.38
2023-04-27T05:28:50.414Z,101094.66
2023-04-27T05:31:19.462Z,101083.22
2023-04-27T05:33:48.475Z,101087.59
2023-04-27T05:36:18.552Z,101096.38
2023-04-27T05:38:47.257Z,101099.88
2023-04-27T05:41:16.081Z,101096.31
2023-04-27T05:43:45.183Z,101099.78
2023-04-27T05:46:15.844Z,101094.38
2023-04-27T05:48:44.665Z,101100.53
2023-04-27T05:51:13.567Z,101103.94
2023-04-27T05:53:43.846Z,101102.00
2023-04-27T05:56:12.830Z,101104.50
2023-04-27T05:58:42.184Z,101102.69
2023-04-27T06:01:10.997Z,101111.50
2023-04-27T06:03:39.974Z,101101.81
2023-04-27T06:06:09.021Z,101106.97
2023-04-27T06:08:39.536Z,101100.78
2023-04-27T06:11:09.750Z,101108.63
2023-04-27T06:13:38.596Z,101048.16
2023-04-27T06:16:08.155Z,101105.81
2023-04-27T06:18:37.191Z,101107.38
2023-04-27T06:21:07.054Z,101108.16
2023-04-27T06:23:35.972Z,101110.59
2023-04-27T06:26:05.312Z,101114.78
2023-04-27T06:28:35.655Z,101114.69
2023-04-27T06:31:04.885Z,101106.00
2023-04-27T06:33:33.819Z,101119.31
2023-04-27T06:36:03.249Z,101117.63
2023-04-27T06:38:32.122Z,101123.00
2023-04-27T06:41:00.996Z,101116.88
2023-04-27T06:43:29.802Z,101129.13
2023-04-27T06:45:59.967Z,101128.94
2023-04-27T06:48:28.814Z,101121.78
2023-04-27T06:50:57.624Z,101133.88
2023-04-27T06:53:26.335Z,101136.38
2023-04-27T06:55:56.549Z,101137.94
2023-04-27T06:58:25.296Z,101143.94
2023-04-27T07:00:54.062Z,101149.56
2023-04-27T07:03:24.411Z,101137.41
2023-04-27T07:05:53.294Z,101139.16
2023-04-27T07:08:22.088Z,101140.16
2023-04-27T07:10:51.087Z,101129.97
2023-04-27T07:13:19.811Z,101145.06
2023-04-27T07:15:48.612Z,101147.72
2023-04-27T07:18:17.540Z,101078.28
2023-04-27T07:20:47.655Z,101145.25
2023-04-27T07:23:16.543Z,101148.63
2023-04-27T07:25:45.525Z,101153.13
2023-04-27T07:28:15.147Z,101148.59
2023-04-27T07:30:43.940Z,101155.31
2023-04-27T07:33:13.294Z,101160.38
2023-04-27T07:35:42.095Z,101165.31
2023-04-27T07:38:12.479Z,101172.09
2023-04-27T07:40:42.672Z,101164.72
2023-04-27T07:43:12.576Z,101169.91
2023-04-27T07:45:42.492Z,101159.94
2023-04-27T07:48:11.477Z,101175.19
2023-04-27T07:50:40.383Z,101174.72
2023-04-27T07:53:09.092Z,101173.69
2023-04-27T07:55:39.221Z,101180.41
2023-04-27T07:58:07.944Z,101178.53
2023-04-27T08:00:36.649Z,101180.38
2023-04-27T08:03:05.788Z,101185.63
2023-04-27T08:05:35.259Z,101186.22
2023-04-27T08:08:04.614Z,101191.00
2023-04-27T08:10:33.518Z,101182.50
2023-04-27T08:13:03.900Z,101191.28
2023-04-27T08:15:32.745Z,101190.06
2023-04-27T08:18:01.509Z,101191.03
2023-04-27T08:20:30.541Z,101195.66
2023-04-27T08:22:59.314Z,101195.19
2023-04-27T08:25:28.014Z,101188.88
2023-04-27T08:27:56.728Z,101185.09
2023-04-27T08:30:26.850Z,101182.84
2023-04-27T08:32:55.756Z,101189.88
2023-04-27T08:35:24.495Z,101191.38
2023-04-27T08:37:54.292Z,101190.03
2023-04-27T08:40:24.819Z,101202.09
2023-04-27T08:42:58.639Z,101206.81
2023-04-27T08:45:29.826Z,101197.16
2023-04-27T08:47:58.638Z,101199.47
2023-04-27T08:50:27.490Z,101198.94
2023-04-27T08:52:56.304Z,101198.19
2023-04-27T08:55:25.129Z,101200.59
2023-04-27T08:57:58.175Z,101200.56
2023-04-27T09:00:38.828Z,101197.78
2023-04-27T09:03:08.042Z,101203.44
2023-04-27T09:05:37.084Z,101199.38
2023-04-27T09:08:08.404Z,101193.41
2023-04-27T09:10:47.479Z,101184.38
2023-04-27T09:13:16.488Z,101185.38
2023-04-27T09:15:48.838Z,101187.41
2023-04-27T09:18:19.279Z,101195.59
2023-04-27T09:20:50.422Z,101191.91
2023-04-27T09:23:37.856Z,101193.66
2023-04-27T09:26:08.856Z,101190.44
2023-04-27T09:28:41.295Z,101185.25
2023-04-27T09:31:11.896Z,101178.81
2023-04-27T09:33:40.427Z,101152.59
2023-04-27T09:36:09.692Z,101191.63
2023-04-27T09:38:38.565Z,101185.16
2023-04-27T09:41:09.032Z,101187.13
2023-04-27T09:43:38.138Z,101190.28
2023-04-27T09:46:07.244Z,101190.91
2023-04-27T09:48:39.823Z,101182.34
2023-04-27T09:51:08.746Z,101183.41
2023-04-27T09:53:42.564Z,101178.44
2023-04-27T09:56:28.419Z,101192.97
2023-04-27T09:59:16.886Z,101192.09
2023-04-27T10:01:48.813Z,101183.88
2023-04-27T10:04:34.495Z,101182.13
2023-04-27T10:07:04.896Z,101177.25
2023-04-27T10:09:38.463Z,101108.56
2023-04-27T10:12:18.980Z,101176.59
2023-04-27T10:14:53.230Z,101180.00
2023-04-27T10:17:30.306Z,101176.25
2023-04-27T10:20:05.130Z,101185.97
2023-04-27T10:22:41.971Z,101173.13
2023-04-27T10:25:22.150Z,101183.47
2023-04-27T10:27:53.063Z,101179.34
2023-04-27T10:30:24.376Z,101185.75
2023-04-27T10:32:54.729Z,101179.16
2023-04-27T10:35:33.730Z,101185.78
2023-04-27T10:38:08.554Z,101178.22
2023-04-27T10:40:38.167Z,101173.63
2023-04-27T10:43:11.361Z,101168.28
2023-04-27T10:45:40.472Z,101177.97
2023-04-27T10:48:09.536Z,101163.41
2023-04-27T10:50:40.501Z,101171.81
2023-04-27T10:53:09.802Z,101174.78
2023-04-27T10:55:39.171Z,101171.22
2023-04-27T10:58:08.016Z,101165.34
2023-04-27T11:00:41.746Z,101161.53
2023-04-27T11:03:18.678Z,101165.19
2023-04-27T11:06:03.209Z,101166.72
2023-04-27T11:08:34.126Z,101166.00
2023-04-27T11:11:11.335Z,101162.44
2023-04-27T11:13:40.727Z,101160.66
2023-04-27T11:16:12.740Z,101157.41
2023-04-27T11:18:41.869Z,101149.84
2023-04-27T11:21:16.338Z,101167.91
2023-04-27T11:23:45.463Z,101170.84
2023-04-27T11:26:16.142Z,101166.56
2023-04-27T11:28:45.759Z,101166.94
2023-04-27T11:31:19.522Z,101162.66
2023-04-27T11:33:52.064Z,101169.50
2023-04-27T11:36:23.630Z,101168.63
2023-04-27T11:38:52.423Z,101160.03
2023-04-27T11:41:21.174Z,101162.09
2023-04-27T11:43:51.286Z,101149.78
2023-04-27T11:46:22.364Z,101166.63
2023-04-27T11:48:52.400Z,101162.97
2023-04-27T11:51:26.241Z,101170.88
2023-04-27T11:53:54.992Z,101173.75
2023-04-27T11:56:23.753Z,101170.09
2023-04-27T11:58:52.168Z,101146.75
2023-04-27T12:01:30.877Z,101177.16
2023-04-27T12:04:05.927Z,101172.56
2023-04-27T12:06:36.546Z,101173.56
2023-04-27T12:09:05.644Z,101179.59
2023-04-27T12:11:34.702Z,101173.50
2023-04-27T12:14:04.349Z,101177.81
2023-04-27T12:16:33.616Z,101173.13
2023-04-27T12:19:02.602Z,101180.53
2023-04-27T12:21:32.252Z,101176.16
2023-04-27T12:24:02.388Z,101181.97
2023-04-27T12:26:31.156Z,101179.41
2023-04-27T12:28:59.944Z,101172.53
2023-04-27T12:31:28.729Z,101185.97
2023-04-27T12:33:57.706Z,101188.81
2023-04-27T12:36:27.329Z,101189.75
2023-04-27T12:38:58.977Z,101192.78
2023-04-27T12:41:29.277Z,101182.38
2023-04-27T12:43:57.858Z,101192.41
2023-04-27T12:46:26.860Z,101194.25
2023-04-27T12:48:57.080Z,101195.63
2023-04-27T12:51:25.950Z,101183.34
2023-04-27T12:53:54.709Z,101189.63
2023-04-27T12:56:24.108Z,101178.25
2023-04-27T12:58:54.186Z,101179.84
2023-04-27T13:01:24.943Z,101180.75
2023-04-27T13:03:54.786Z,101184.28
2023-04-27T13:06:23.909Z,101186.03
2023-04-27T13:08:52.855Z,101172.16
2023-04-27T13:11:21.809Z,101181.50
2023-04-27T13:13:50.834Z,101178.09
2023-04-27T13:16:22.661Z,101181.09
2023-04-27T13:18:52.458Z,101181.59
2023-04-27T13:21:21.103Z,101176.78
2023-04-27T13:23:51.236Z,101112.78
2023-04-27T13:26:20.003Z,101187.56
2023-04-27T13:28:49.032Z,101177.38
2023-04-27T13:31:17.869Z,101178.34
2023-04-27T13:33:48.084Z,101170.50
2023-04-27T13:36:16.981Z,101185.00
2023-04-27T13:38:47.686Z,101190.75
2023-04-27T13:41:16.602Z,101178.31
2023-04-27T13:43:45.578Z,101181.00
2023-04-27T13:46:15.474Z,101180.91
2023-04-27T13:48:44.288Z,101175.94
2023-04-27T13:51:14.508Z,101172.91
2023-04-27T13:53:43.292Z,101175.19
2023-04-27T13:56:11.769Z,101178.75
2023-04-27T13:58:41.646Z,101175.19
2023-04-27T14:01:10.594Z,101171.00
2023-04-27T14:06:08.367Z,101113.38
2023-04-27T14:08:38.732Z,101176.41
2023-04-27T14:11:07.535Z,101170.88
2023-04-27T14:13:36.379Z,101173.78
2023-04-27T14:16:05.338Z,101164.41
2023-04-27T14:18:34.290Z,101169.84
2023-04-27T14:21:03.445Z,101168.03
2023-04-27T14:23:32.355Z,101164.44
2023-04-27T14:26:02.593Z,101166.28
2023-04-27T14:28:31.468Z,101164.88
2023-04-27T14:31:00.195Z,101165.09
2023-04-27T14:33:28.998Z,101159.97
2023-04-27T14:35:57.809Z,101165.06
2023-04-27T14:38:26.547Z,101157.56
2023-04-27T14:40:55.289Z,101164.19
2023-04-27T14:43:25.414Z,101159.84
2023-04-27T14:46:19.834Z,101160.88
2023-04-27T14:48:50.705Z,101160.72
2023-04-27T14:51:19.805Z,101164.31
2023-04-27T14:53:48.757Z,101159.84
2023-04-27T14:56:18.053Z,101159.25
2023-04-27T14:58:48.563Z,101159.72
2023-04-27T15:01:17.403Z,101169.84
2023-04-27T15:03:46.345Z,101163.03
2023-04-27T15:06:15.388Z,101167.91
2023-04-27T15:08:44.067Z,101169.72
2023-04-27T15:11:12.805Z,101155.88
2023-04-27T15:13:41.508Z,101155.19
2023-04-27T15:16:11.663Z,101153.34
2023-04-27T15:18:40.608Z,101154.75
2023-04-27T15:21:09.320Z,101152.56
2023-04-27T15:23:41.037Z,101154.78
2023-04-27T15:26:09.807Z,101163.22
2023-04-27T15:28:38.589Z,101162.41
2023-04-27T15:31:07.481Z,101162.94
2023-04-27T15:33:37.676Z,101157.56
2023-04-27T15:36:06.919Z,101158.81
2023-04-27T15:38:36.351Z,101157.06
2023-04-27T15:41:05.149Z,101163.03
2023-04-27T15:43:33.885Z,101158.59
2023-04-27T15:46:05.846Z,101083.00
2023-04-27T15:48:36.361Z,101156.94
2023-04-27T15:51:09.526Z,101154.34
2023-04-27T15:53:39.083Z,101149.34
2023-04-27T15:56:08.103Z,101150.47
2023-04-27T15:58:36.839Z,101147.03
2023-04-27T16:01:07.021Z,101133.59
2023-04-27T16:03:37.874Z,101141.28
2023-04-27T16:06:07.597Z,101138.81
2023-04-27T16:08:36.309Z,101134.50
2023-04-27T16:11:05.147Z,101132.25
2023-04-27T16:13:33.906Z,101126.47
2023-04-27T16:16:04.442Z,101118.72
2023-04-27T16:18:34.802Z,101116.38
2023-04-27T16:21:05.095Z,101117.31
2023-04-27T16:23:33.836Z,101120.88
2023-04-27T16:26:02.603Z,101113.19
2023-04-27T16:28:32.756Z,101124.88
2023-04-27T16:31:01.754Z,101110.22
2023-04-27T16:33:31.293Z,101110.94
2023-04-27T16:36:00.106Z,101101.66
2023-04-27T16:38:30.206Z,101106.22
2023-04-27T16:40:58.937Z,101104.47
2023-04-27T16:43:28.068Z,101100.00
2023-04-27T16:45:56.907Z,101099.13
2023-04-27T16:48:25.865Z,101102.31
2023-04-27T16:50:55.648Z,101102.50
2023-04-27T16:53:24.579Z,101118.00
2023-04-27T16:55:54.791Z,101107.38
2023-04-27T16:58:24.122Z,101116.06
2023-04-27T17:00:52.868Z,101109.53
2023-04-27T17:03:21.739Z,101112.00
2023-04-27T17:05:51.266Z,101111.28
2023-04-27T17:08:20.136Z,101108.16
2023-04-27T17:10:49.185Z,101115.88
2023-04-27T17:13:19.324Z,101123.81
2023-04-27T17:15:48.221Z,101128.25
2023-04-27T17:18:17.020Z,101125.53
2023-04-27T17:20:45.728Z,101123.00
2023-04-27T17:23:14.495Z,101128.88
2023-04-27T17:25:43.203Z,101122.75
2023-04-27T17:28:12.193Z,101129.97
2023-04-27T17:30:42.644Z,101126.78
2023-04-27T17:33:11.413Z,101123.56
2023-04-27T17:35:40.740Z,101130.06
2023-04-27T17:38:09.517Z,101124.06
2023-04-27T17:40:38.282Z,101116.34
2023-04-27T17:43:07.545Z,101122.72
2023-04-27T17:45:36.730Z,101118.50
2023-04-27T17:48:07.810Z,101113.31
2023-04-27T17:50:37.508Z,101117.00
2023-04-27T17:53:06.339Z,101109.22
2023-04-27T17:55:35.334Z,101110.25
2023-04-27T17:58:06.332Z,101105.13
2023-04-27T18:00:35.749Z,101102.69
2023-04-27T18:03:06.305Z,101108.91
2023-04-27T18:05:35.308Z,101103.72
2023-04-27T18:08:04.200Z,101104.59
2023-04-27T18:10:33.008Z,101111.72
2023-04-27T18:13:01.761Z,101106.53
2023-04-27T18:15:30.566Z,101108.34
2023-04-27T18:17:59.383Z,101124.22
2023-04-27T18:20:29.866Z,101118.13
2023-04-27T18:22:58.870Z,101119.91
2023-04-27T18:25:27.705Z,101107.66
2023-04-27T18:27:56.612Z,101118.22
2023-04-27T18:30:25.926Z,101119.16
2023-04-27T18:32:55.091Z,101121.81
2023-04-27T18:35:24.140Z,101127.13
2023-04-27T18:37:54.207Z,101122.75
2023-04-27T18:40:24.980Z,101135.91
2023-04-27T18:42:54.568Z,101131.53
2023-04-27T18:45:23.560Z,101135.06
2023-04-27T18:47:52.406Z,101136.81
2023-04-27T18:50:21.433Z,101142.97
2023-04-27T18:52:50.279Z,101142.94
2023-04-27T18:55:20.695Z,101142.94
2023-04-27T18:57:49.701Z,101145.56
2023-04-27T19:00:18.616Z,101144.69
2023-04-27T19:02:48.288Z,101147.31
2023-04-27T19:05:17.394Z,101152.59
2023-04-27T19:07:46.153Z,101148.16
2023-04-27T19:10:14.956Z,101147.22
2023-04-27T19:12:45.097Z,101153.31
2023-04-27T19:15:14.406Z,101159.38
2023-04-27T19:17:43.574Z,101084.63
2023-04-27T19:20:12.917Z,101151.34
2023-04-27T19:22:41.663Z,101156.56
2023-04-27T19:25:10.889Z,101153.91
2023-04-27T19:27:39.768Z,101151.28
2023-04-27T19:30:11.440Z,101150.41
2023-04-27T19:32:40.341Z,101153.06
2023-04-27T19:35:12.469Z,101155.66
2023-04-27T19:37:41.391Z,101147.78
2023-04-27T19:40:11.370Z,101147.78
2023-04-27T19:42:40.129Z,101147.69
2023-04-27T19:45:10.980Z,101134.47
2023-04-27T19:47:39.844Z,101137.94
2023-04-27T19:50:09.347Z,101140.50
2023-04-27T19:52:38.214Z,101142.25
2023-04-27T19:55:07.813Z,101142.19
2023-04-27T19:57:39.637Z,101145.63
2023-04-27T20:00:12.320Z,101141.19
2023-04-27T20:02:43.940Z,101142.06
2023-04-27T20:05:13.565Z,101131.56
2023-04-27T20:07:42.746Z,101135.91
2023-04-27T20:10:11.749Z,101134.09
2023-04-27T20:12:55.256Z,101125.31
2023-04-27T20:15:26.882Z,101127.91
2023-04-27T20:17:55.817Z,101127.88
2023-04-27T20:20:24.631Z,101129.63
2023-04-27T20:22:53.339Z,101126.97
2023-04-27T20:25:22.195Z,101137.44
2023-04-27T20:27:51.313Z,101123.41
2023-04-27T20:30:20.268Z,101129.50
2023-04-27T20:32:50.489Z,101120.75
2023-04-27T20:35:19.315Z,101128.63
2023-04-27T20:37:48.034Z,101116.44
2023-04-27T20:40:18.244Z,101116.44
2023-04-27T20:42:49.402Z,101120.81
2023-04-27T20:45:18.708Z,101120.72
2023-04-27T20:47:47.518Z,101133.78
2023-04-27T20:50:17.800Z,101126.75
2023-04-27T20:52:50.078Z,101126.72
2023-04-27T20:55:18.828Z,101131.13
2023-04-27T20:57:47.563Z,101130.28
2023-04-27T21:00:18.577Z,101129.50
2023-04-27T21:02:48.297Z,101125.97
2023-04-27T21:05:18.801Z,101125.09
2023-04-27T21:07:47.517Z,101124.22
2023-04-27T21:10:16.276Z,101128.56
2023-04-27T21:12:44.980Z,101119.78
2023-04-27T21:15:13.775Z,101125.91
2023-04-27T21:17:42.552Z,101122.38
2023-04-27T21:20:12.310Z,101124.94
2023-04-27T21:22:42.404Z,101115.31
2023-04-27T21:25:11.531Z,101113.47
2023-04-27T21:27:40.755Z,101115.16
2023-04-27T21:30:11.132Z,101116.81
2023-04-27T21:32:39.937Z,101119.38
2023-04-27T21:35:09.790Z,101113.19
2023-04-27T21:37:38.604Z,101108.78
2023-04-27T21:40:09.972Z,101110.56
2023-04-27T21:42:38.805Z,101107.09
2023-04-27T21:45:08.618Z,101100.97
2023-04-27T21:47:37.521Z,101098.25
2023-04-27T21:50:07.727Z,101103.47
2023-04-27T21:52:36.568Z,101094.72
2023-04-27T21:55:05.762Z,101093.81
2023-04-27T21:57:35.899Z,101094.69
2023-04-27T22:00:13.786Z,101099.00
2023-04-27T22:02:49.597Z,101093.72
2023-04-27T22:05:20.930Z,101099.03
2023-04-27T22:07:49.661Z,101096.44
2023-04-27T22:10:18.445Z,101099.09
2023-04-27T22:12:48.630Z,101095.59
2023-04-27T22:15:19.747Z,101098.19
2023-04-27T22:17:49.796Z,101099.88
2023-04-27T22:20:18.870Z,101097.22
2023-04-27T22:22:48.140Z,101091.94
2023-04-27T22:25:16.853Z,101094.53
2023-04-27T22:27:46.989Z,101097.16
2023-04-27T22:30:16.526Z,101100.56
2023-04-27T22:32:45.652Z,101097.91
2023-04-27T22:35:25.790Z,101093.56
2023-04-27T22:37:56.314Z,101099.69
2023-04-27T22:40:25.543Z,101102.34
2023-04-27T22:42:56.064Z,101106.66
2023-04-27T22:45:24.817Z,101110.97
2023-04-27T22:47:53.943Z,101111.78
2023-04-27T22:50:23.243Z,101105.69
2023-04-27T22:52:53.004Z,101103.06
2023-04-27T22:55:22.272Z,101103.91
2023-04-27T22:57:51.106Z,101098.66
2023-04-27T23:00:21.667Z,101100.44
2023-04-27T23:02:50.700Z,101089.06
2023-04-27T23:05:19.540Z,101091.66
2023-04-27T23:07:48.280Z,101087.28
2023-04-27T23:10:18.826Z,101079.44
2023-04-27T23:12:47.565Z,101088.19
2023-04-27T23:15:16.467Z,101087.34
2023-04-27T23:17:46.555Z,101095.22
2023-04-27T23:20:27.460Z,101088.25
2023-04-27T23:22:57.753Z,101087.38
2023-04-27T23:25:26.589Z,101093.56
2023-04-27T23:27:55.325Z,101085.72
2023-04-27T23:30:24.180Z,101086.63
2023-04-27T23:32:54.301Z,101080.56
2023-04-27T23:35:23.308Z,101082.41
2023-04-27T23:37:52.039Z,101086.00
2023-04-27T23:40:20.757Z,101081.69
2023-04-27T23:42:51.490Z,101078.31
2023-04-27T23:45:20.917Z,101076.63
2023-04-27T23:47:49.781Z,101067.09
2023-04-27T23:50:19.987Z,101066.28
2023-04-27T23:52:49.662Z,101062.84
2023-04-27T23:55:18.719Z,101064.59
2023-04-27T23:57:47.456Z,101059.34
